Погода Калбана неделю

Шарджа, ОАЭ

29 февраля-06 марта
  • 29февраля
    Сегодня
    +19°
    +28°
    Ясно и безоблачно
    ВремяПогодаТемператураВлажностьДавлениеВетер, м/сВероятность осадков
    01:00Практически безоблачно+22°C87 %758 мм2.9 м/с2 %
    04:00Ясно и безоблачно+21°C88 %757 мм2.8 м/с2 %
    07:00Практически безоблачно+21°C84 %758 мм3.7 м/с2 %
    10:00Практически безоблачно+25°C58 %759 мм5.9 м/с4 %
    13:00Ясно и безоблачно+27°C41 %757 мм8.0 м/с5 %
    16:00Ясно и безоблачно+26°C36 %756 мм9.9 м/с2 %
    19:00Ясно и безоблачно+23°C49 %758 мм9.1 м/с2 %
    22:00Ясно и безоблачно+21°C64 %758 мм8.6 м/с2 %
  • 01марта
    Пятница
    +17°
    +24°
    Практически безоблачно
    ВремяПогодаТемператураВлажностьДавлениеВетер, м/сВероятность осадков
    01:00Практически безоблачно+20°C67 %758 мм8.6 м/с2 %
    04:00Ясно и безоблачно+20°C66 %758 мм7.9 м/с2 %
    07:00Практически безоблачно+19°C65 %760 мм7.3 м/с2 %
    10:00Практически безоблачно+22°C40 %762 мм6.3 м/с2 %
    13:00Практически безоблачно+23°C42 %760 мм8.0 м/с3 %
    16:00Ясно и безоблачно+21°C51 %760 мм7.4 м/с3 %
    19:00Ясно и безоблачно+21°C47 %762 мм4.8 м/с2 %
    22:00Ясно и безоблачно+20°C49 %764 мм2.5 м/с2 %
  • 02марта
    Суббота
    +17°
    +21°
    Пасмурно, сплошная облачность
    ВремяПогодаТемператураВлажностьДавлениеВетер, м/сВероятность осадков
    01:00Ясно и безоблачно+20°C47 %763 мм3.4 м/с2 %
    04:00Небольшая облачность+18°C64 %763 мм4.7 м/с3 %
    07:00Облачно с прояснениями+18°C71 %764 мм5.4 м/с9 %
    10:00Пасмурно, сплошная облачность+20°C57 %765 мм6.8 м/с13 %
    13:00Пасмурно, сплошная облачность+21°C55 %764 мм7.5 м/с14 %
    16:00Облачно с прояснениями+21°C53 %763 мм6.1 м/с6 %
    19:00Ясно и безоблачно+20°C61 %763 мм5.3 м/с3 %
    22:00Ясно и безоблачно+19°C68 %764 мм4.5 м/с2 %
  • 03марта
    Воскресенье
    +19°
    +23°
    Практически безоблачно
    ВремяПогодаТемператураВлажностьДавлениеВетер, м/сВероятность осадков
    01:00Ясно и безоблачно+19°C72 %763 мм4.3 м/с2 %
    04:00Ясно и безоблачно+18°C69 %762 мм3.2 м/с2 %
    07:00Ясно и безоблачно+18°C74 %763 мм3.5 м/с2 %
    10:00Ясно и безоблачно+22°C58 %764 мм4.3 м/с2 %
    13:00Практически безоблачно+23°C52 %762 мм6.6 м/с2 %
    16:00Ясно и безоблачно+23°C59 %761 мм5.6 м/с2 %
    19:00Ясно и безоблачно+22°C58 %761 мм5.4 м/с2 %
    22:00Небольшая облачность+21°C64 %762 мм5.3 м/с2 %
  • 04марта
    Понедельник
    +20°
    +25°
    Облачно с прояснениями
    ВремяПогодаТемператураВлажностьДавлениеВетер, м/сВероятность осадков
    01:00Ясно и безоблачно+21°C74 %761 мм4.5 м/с2 %
    04:00Ясно и безоблачно+20°C76 %760 мм3.6 м/с3 %
    07:00Ясно и безоблачно+19°C78 %761 мм4.1 м/с3 %
    10:00Ясно и безоблачно+23°C63 %762 мм4.5 м/с3 %
    13:00Облачно с прояснениями+24°C52 %761 мм5.8 м/с12 %
    16:00Ясно и безоблачно+24°C55 %760 мм5.4 м/с14 %
    19:00Ясно и безоблачно+23°C64 %760 мм5.9 м/с19 %
    22:00Небольшая облачность+22°C66 %761 мм5.5 м/с37 %
Мы используем cookies
Соглашаюсь